Terminal Aerodrome Forecast
Issued by NWS

Home | Current Version | Previous Version | Text Only | Print | Product List | Glossary Off
Versions: 1 2 3 4 5 6 7 8 9 10 11 12 13 14 15 16 17 18 19 20 21

000
FTUS43 KABR 131600 AAA
TAFPIR
TAF AMD
KPIR 131604Z 1316/1412 35027G35KT P6SM SCT030 BKN200
     FM131900 35025G34KT P6SM BKN040
     FM140300 34012KT P6SM SCT250=

USA.gov is the U.S. government's official web portal to all federal, state and local government web resources and services.